sensor_id;sensor_type;location;lat;lon;timestamp;pressure;altitude;pressure_sealevel;temperature;humidity
62978;BME280;49073;42.352;23.808;2023-04-21T00:01:32;94275.91;;;10.23;70.62
62978;BME280;49073;42.352;23.808;2023-04-21T00:04:33;94270.66;;;10.26;70.72
62978;BME280;49073;42.352;23.808;2023-04-21T00:07:36;94262.25;;;10.24;70.85
62978;BME280;49073;42.352;23.808;2023-04-21T00:10:37;94263.00;;;10.25;70.46
62978;BME280;49073;42.352;23.808;2023-04-21T00:13:37;94258.81;;;10.24;70.58
62978;BME280;49073;42.352;23.808;2023-04-21T00:16:38;94263.72;;;10.18;70.95
62978;BME280;49073;42.352;23.808;2023-04-21T00:19:39;94253.06;;;10.18;71.18
62978;BME280;49073;42.352;23.808;2023-04-21T00:22:39;94261.06;;;10.22;71.47
62978;BME280;49073;42.352;23.808;2023-04-21T00:25:40;94259.50;;;10.17;71.59
62978;BME280;49073;42.352;23.808;2023-04-21T00:28:40;94260.53;;;10.09;71.94
62978;BME280;49073;42.352;23.808;2023-04-21T00:31:41;94263.94;;;10.06;71.96
62978;BME280;49073;42.352;23.808;2023-04-21T00:34:41;94258.59;;;10.06;72.15
62978;BME280;49073;42.352;23.808;2023-04-21T00:37:42;94263.81;;;9.98;72.34
62978;BME280;49073;42.352;23.808;2023-04-21T00:40:42;94255.78;;;9.95;72.44
62978;BME280;49073;42.352;23.808;2023-04-21T00:44:04;94258.28;;;9.84;72.98
62978;BME280;49073;42.352;23.808;2023-04-21T00:47:05;94251.44;;;9.83;72.90
62978;BME280;49073;42.352;23.808;2023-04-21T00:50:06;94256.03;;;9.86;72.56
62978;BME280;49073;42.352;23.808;2023-04-21T00:53:06;94261.34;;;9.86;72.49
62978;BME280;49073;42.352;23.808;2023-04-21T00:56:08;94258.69;;;9.86;72.62
62978;BME280;49073;42.352;23.808;2023-04-21T00:59:08;94250.41;;;9.91;72.60
62978;BME280;49073;42.352;23.808;2023-04-21T01:02:09;94253.47;;;9.93;72.90
62978;BME280;49073;42.352;23.808;2023-04-21T01:05:10;94253.84;;;9.92;72.69
62978;BME280;49073;42.352;23.808;2023-04-21T01:08:11;94256.84;;;9.90;72.03
62978;BME280;49073;42.352;23.808;2023-04-21T01:11:12;94250.50;;;9.98;71.58
62978;BME280;49073;42.352;23.808;2023-04-21T01:14:13;94246.25;;;9.94;71.81
62978;BME280;49073;42.352;23.808;2023-04-21T01:17:13;94244.75;;;9.96;71.44
62978;BME280;49073;42.352;23.808;2023-04-21T01:20:18;94247.81;;;9.95;71.43
62978;BME280;49073;42.352;23.808;2023-04-21T01:23:18;94246.28;;;9.97;71.37
62978;BME280;49073;42.352;23.808;2023-04-21T01:26:20;94247.03;;;9.94;71.37
62978;BME280;49073;42.352;23.808;2023-04-21T01:29:22;94243.59;;;9.94;71.62
62978;BME280;49073;42.352;23.808;2023-04-21T01:32:26;94250.38;;;9.87;71.36
62978;BME280;49073;42.352;23.808;2023-04-21T01:35:28;94243.84;;;9.85;71.32
62978;BME280;49073;42.352;23.808;2023-04-21T01:38:28;94242.72;;;9.86;71.15
62978;BME280;49073;42.352;23.808;2023-04-21T01:41:29;94242.28;;;9.80;71.08
62978;BME280;49073;42.352;23.808;2023-04-21T01:44:30;94246.81;;;9.80;71.66
62978;BME280;49073;42.352;23.808;2023-04-21T01:47:30;94243.72;;;9.74;71.46
62978;BME280;49073;42.352;23.808;2023-04-21T01:50:31;94247.44;;;9.69;71.93
62978;BME280;49073;42.352;23.808;2023-04-21T01:53:31;94242.78;;;9.63;71.79
62978;BME280;49073;42.352;23.808;2023-04-21T01:56:32;94249.63;;;9.64;72.03
62978;BME280;49073;42.352;23.808;2023-04-21T01:59:32;94241.84;;;9.51;72.53
62978;BME280;49073;42.352;23.808;2023-04-21T02:02:33;94241.41;;;9.45;72.56
62978;BME280;49073;42.352;23.808;2023-04-21T02:05:33;94240.97;;;9.43;72.35
62978;BME280;49073;42.352;23.808;2023-04-21T02:08:34;94229.91;;;9.41;72.68
62978;BME280;49073;42.352;23.808;2023-04-21T02:11:35;94230.16;;;9.32;72.84
62978;BME280;49073;42.352;23.808;2023-04-21T02:14:36;94236.09;;;9.22;73.29
62978;BME280;49073;42.352;23.808;2023-04-21T02:17:37;94228.00;;;9.15;73.64
62978;BME280;49073;42.352;23.808;2023-04-21T02:20:38;94237.03;;;9.10;74.12
62978;BME280;49073;42.352;23.808;2023-04-21T02:23:38;94231.47;;;8.76;75.08
62978;BME280;49073;42.352;23.808;2023-04-21T02:26:39;94237.16;;;8.75;74.88
62978;BME280;49073;42.352;23.808;2023-04-21T02:29:40;94221.31;;;8.58;74.79
62978;BME280;49073;42.352;23.808;2023-04-21T02:32:41;94224.66;;;8.36;75.29
62978;BME280;49073;42.352;23.808;2023-04-21T02:35:41;94230.91;;;8.08;75.65
62978;BME280;49073;42.352;23.808;2023-04-21T02:38:42;94225.47;;;8.00;76.07
62978;BME280;49073;42.352;23.808;2023-04-21T02:41:42;94232.50;;;7.93;76.22
62978;BME280;49073;42.352;23.808;2023-04-21T02:44:43;94224.50;;;7.73;76.92
62978;BME280;49073;42.352;23.808;2023-04-21T02:47:43;94217.16;;;7.66;77.19
62978;BME280;49073;42.352;23.808;2023-04-21T02:50:44;94214.34;;;7.59;77.82
62978;BME280;49073;42.352;23.808;2023-04-21T02:53:44;94228.31;;;7.40;77.91
62978;BME280;49073;42.352;23.808;2023-04-21T02:56:45;94225.69;;;7.40;78.41
62978;BME280;49073;42.352;23.808;2023-04-21T02:59:45;94223.94;;;7.32;78.63
62978;BME280;49073;42.352;23.808;2023-04-21T03:02:46;94224.63;;;7.28;79.20
62978;BME280;49073;42.352;23.808;2023-04-21T03:05:46;94228.22;;;7.36;79.45
62978;BME280;49073;42.352;23.808;2023-04-21T03:08:47;94231.97;;;7.51;79.66
62978;BME280;49073;42.352;23.808;2023-04-21T03:11:47;94228.28;;;7.56;79.35
62978;BME280;49073;42.352;23.808;2023-04-21T03:14:48;94230.84;;;7.68;78.40
62978;BME280;49073;42.352;23.808;2023-04-21T03:17:48;94230.94;;;7.92;77.29
62978;BME280;49073;42.352;23.808;2023-04-21T03:20:49;94237.72;;;8.25;75.67
62978;BME280;49073;42.352;23.808;2023-04-21T03:23:51;94223.59;;;8.40;75.11
62978;BME280;49073;42.352;23.808;2023-04-21T03:26:52;94243.97;;;8.52;74.52
62978;BME280;49073;42.352;23.808;2023-04-21T03:29:52;94235.28;;;8.55;74.49
62978;BME280;49073;42.352;23.808;2023-04-21T03:32:53;94231.44;;;8.53;74.03
62978;BME280;49073;42.352;23.808;2023-04-21T03:35:54;94237.59;;;8.57;73.92
62978;BME280;49073;42.352;23.808;2023-04-21T03:38:55;94252.28;;;8.70;73.65
62978;BME280;49073;42.352;23.808;2023-04-21T03:41:57;94251.03;;;8.64;73.71
62978;BME280;49073;42.352;23.808;2023-04-21T03:45:02;94252.25;;;8.51;73.69
62978;BME280;49073;42.352;23.808;2023-04-21T03:48:03;94264.19;;;8.41;74.10
62978;BME280;49073;42.352;23.808;2023-04-21T03:51:04;94263.78;;;8.39;74.15
62978;BME280;49073;42.352;23.808;2023-04-21T03:54:05;94277.06;;;8.39;74.09
62978;BME280;49073;42.352;23.808;2023-04-21T03:57:05;94269.56;;;8.44;73.89
62978;BME280;49073;42.352;23.808;2023-04-21T04:00:07;94270.75;;;8.47;74.05
62978;BME280;49073;42.352;23.808;2023-04-21T04:03:09;94280.88;;;8.41;74.93
62978;BME280;49073;42.352;23.808;2023-04-21T04:06:09;94279.19;;;8.33;75.34
62978;BME280;49073;42.352;23.808;2023-04-21T04:09:10;94290.59;;;8.34;74.99
62978;BME280;49073;42.352;23.808;2023-04-21T04:12:10;94295.06;;;8.29;75.52
62978;BME280;49073;42.352;23.808;2023-04-21T04:15:11;94297.31;;;8.27;75.77
62978;BME280;49073;42.352;23.808;2023-04-21T04:18:12;94298.66;;;8.21;76.55
62978;BME280;49073;42.352;23.808;2023-04-21T04:21:12;94295.53;;;8.15;76.69
62978;BME280;49073;42.352;23.808;2023-04-21T04:24:12;94304.84;;;8.25;76.81
62978;BME280;49073;42.352;23.808;2023-04-21T04:27:15;94304.88;;;8.45;75.16
62978;BME280;49073;42.352;23.808;2023-04-21T04:30:15;94305.72;;;8.69;73.69
62978;BME280;49073;42.352;23.808;2023-04-21T04:33:16;94302.94;;;8.81;72.81
62978;BME280;49073;42.352;23.808;2023-04-21T04:36:17;94309.69;;;8.98;72.60
62978;BME280;49073;42.352;23.808;2023-04-21T04:39:17;94315.44;;;9.00;72.46
62978;BME280;49073;42.352;23.808;2023-04-21T04:42:18;94313.81;;;9.15;71.27
62978;BME280;49073;42.352;23.808;2023-04-21T04:45:22;94318.53;;;9.26;71.26
62978;BME280;49073;42.352;23.808;2023-04-21T04:48:24;94322.44;;;9.32;71.30
62978;BME280;49073;42.352;23.808;2023-04-21T04:51:26;94323.78;;;9.42;70.26
62978;BME280;49073;42.352;23.808;2023-04-21T04:54:26;94323.13;;;9.49;71.20
62978;BME280;49073;42.352;23.808;2023-04-21T04:57:29;94326.97;;;9.51;71.16
62978;BME280;49073;42.352;23.808;2023-04-21T05:00:30;94324.13;;;9.64;70.31
62978;BME280;49073;42.352;23.808;2023-04-21T05:03:31;94318.16;;;9.70;70.58
62978;BME280;49073;42.352;23.808;2023-04-21T05:06:31;94315.25;;;9.79;69.60
62978;BME280;49073;42.352;23.808;2023-04-21T05:09:32;94324.50;;;9.89;68.62
62978;BME280;49073;42.352;23.808;2023-04-21T05:12:33;94317.03;;;9.98;68.48
62978;BME280;49073;42.352;23.808;2023-04-21T05:15:33;94323.25;;;10.06;68.64
62978;BME280;49073;42.352;23.808;2023-04-21T05:18:34;94317.94;;;10.06;68.82
62978;BME280;49073;42.352;23.808;2023-04-21T05:21:34;94308.09;;;10.10;68.06
62978;BME280;49073;42.352;23.808;2023-04-21T05:24:35;94317.38;;;10.20;67.13
62978;BME280;49073;42.352;23.808;2023-04-21T05:27:35;94312.44;;;10.22;67.64
62978;BME280;49073;42.352;23.808;2023-04-21T05:30:36;94305.75;;;10.32;67.48
62978;BME280;49073;42.352;23.808;2023-04-21T05:33:37;94306.63;;;10.40;66.65
62978;BME280;49073;42.352;23.808;2023-04-21T05:36:40;94296.75;;;10.40;66.79
62978;BME280;49073;42.352;23.808;2023-04-21T05:39:41;94307.91;;;10.53;67.41
62978;BME280;49073;42.352;23.808;2023-04-21T05:42:42;94313.72;;;10.59;65.34
62978;BME280;49073;42.352;23.808;2023-04-21T05:45:42;94314.13;;;10.61;64.79
62978;BME280;49073;42.352;23.808;2023-04-21T05:48:43;94309.69;;;10.72;64.58
62978;BME280;49073;42.352;23.808;2023-04-21T05:51:43;94314.59;;;10.70;63.50
62978;BME280;49073;42.352;23.808;2023-04-21T05:54:44;94306.28;;;10.75;63.73
62978;BME280;49073;42.352;23.808;2023-04-21T05:57:45;94309.41;;;10.81;64.71
62978;BME280;49073;42.352;23.808;2023-04-21T06:00:45;94307.16;;;10.87;63.15
62978;BME280;49073;42.352;23.808;2023-04-21T06:03:46;94303.84;;;10.94;63.93
62978;BME280;49073;42.352;23.808;2023-04-21T06:06:49;94309.63;;;11.03;62.59
62978;BME280;49073;42.352;23.808;2023-04-21T06:09:50;94307.81;;;11.11;62.92
62978;BME280;49073;42.352;23.808;2023-04-21T06:12:50;94294.28;;;11.27;63.13
62978;BME280;49073;42.352;23.808;2023-04-21T06:15:51;94306.56;;;11.39;64.11
62978;BME280;49073;42.352;23.808;2023-04-21T06:18:51;94308.13;;;11.43;61.98
62978;BME280;49073;42.352;23.808;2023-04-21T06:21:52;94316.16;;;11.43;60.78
62978;BME280;49073;42.352;23.808;2023-04-21T06:24:53;94305.53;;;11.50;61.03
62978;BME280;49073;42.352;23.808;2023-04-21T06:27:53;94307.91;;;11.63;61.26
62978;BME280;49073;42.352;23.808;2023-04-21T06:30:55;94304.50;;;11.66;61.73
62978;BME280;49073;42.352;23.808;2023-04-21T06:33:55;94310.25;;;11.68;61.17
62978;BME280;49073;42.352;23.808;2023-04-21T06:36:56;94307.47;;;11.54;60.42
62978;BME280;49073;42.352;23.808;2023-04-21T06:39:57;94308.59;;;11.53;62.18
62978;BME280;49073;42.352;23.808;2023-04-21T06:42:57;94304.78;;;11.54;61.33
62978;BME280;49073;42.352;23.808;2023-04-21T06:45:57;94313.25;;;11.59;61.92
62978;BME280;49073;42.352;23.808;2023-04-21T06:48:58;94312.56;;;11.73;61.38
62978;BME280;49073;42.352;23.808;2023-04-21T06:51:59;94309.59;;;11.78;60.65
62978;BME280;49073;42.352;23.808;2023-04-21T06:54:59;94309.59;;;11.78;61.19
62978;BME280;49073;42.352;23.808;2023-04-21T06:58:00;94289.31;;;11.74;60.93
62978;BME280;49073;42.352;23.808;2023-04-21T07:01:00;94300.19;;;11.99;60.09
62978;BME280;49073;42.352;23.808;2023-04-21T07:04:01;94301.09;;;12.14;61.25
62978;BME280;49073;42.352;23.808;2023-04-21T07:07:04;94293.47;;;12.20;59.75
62978;BME280;49073;42.352;23.808;2023-04-21T07:10:05;94293.50;;;12.24;58.47
62978;BME280;49073;42.352;23.808;2023-04-21T07:13:06;94279.13;;;12.43;60.41
62978;BME280;49073;42.352;23.808;2023-04-21T07:16:06;94279.91;;;12.58;58.24
62978;BME280;49073;42.352;23.808;2023-04-21T07:19:07;94278.44;;;12.68;56.97
62978;BME280;49073;42.352;23.808;2023-04-21T07:22:07;94273.84;;;12.64;56.76
62978;BME280;49073;42.352;23.808;2023-04-21T07:25:08;94271.97;;;12.72;55.63
62978;BME280;49073;42.352;23.808;2023-04-21T07:28:10;94270.47;;;12.82;57.64
62978;BME280;49073;42.352;23.808;2023-04-21T07:31:14;94275.13;;;13.10;58.88
62978;BME280;49073;42.352;23.808;2023-04-21T07:34:14;94269.41;;;13.19;56.86
62978;BME280;49073;42.352;23.808;2023-04-21T07:37:15;94266.41;;;13.43;56.67
62978;BME280;49073;42.352;23.808;2023-04-21T07:40:15;94260.28;;;13.49;56.12
62978;BME280;49073;42.352;23.808;2023-04-21T07:43:16;94271.00;;;13.46;54.70
62978;BME280;49073;42.352;23.808;2023-04-21T07:46:18;94277.13;;;13.53;51.92
62978;BME280;49073;42.352;23.808;2023-04-21T07:49:19;94269.88;;;13.65;53.63
62978;BME280;49073;42.352;23.808;2023-04-21T07:52:20;94281.34;;;13.69;52.55
62978;BME280;49073;42.352;23.808;2023-04-21T07:55:20;94271.75;;;13.79;52.49
62978;BME280;49073;42.352;23.808;2023-04-21T07:58:21;94284.00;;;13.73;50.79
62978;BME280;49073;42.352;23.808;2023-04-21T08:01:22;94273.31;;;13.76;52.52
62978;BME280;49073;42.352;23.808;2023-04-21T08:04:23;94281.72;;;13.93;52.47
62978;BME280;49073;42.352;23.808;2023-04-21T08:07:23;94291.66;;;13.81;50.26
62978;BME280;49073;42.352;23.808;2023-04-21T08:10:24;94286.31;;;13.74;51.33
62978;BME280;49073;42.352;23.808;2023-04-21T08:13:25;94285.94;;;13.87;53.51
62978;BME280;49073;42.352;23.808;2023-04-21T08:16:25;94291.66;;;13.71;50.87
62978;BME280;49073;42.352;23.808;2023-04-21T08:19:26;94289.38;;;13.69;49.65
62978;BME280;49073;42.352;23.808;2023-04-21T08:22:27;94289.38;;;13.84;52.82
62978;BME280;49073;42.352;23.808;2023-04-21T08:25:28;94290.91;;;13.88;51.27
62978;BME280;49073;42.352;23.808;2023-04-21T08:28:28;94292.81;;;13.84;50.96
62978;BME280;49073;42.352;23.808;2023-04-21T08:31:28;94290.91;;;13.63;51.56
62978;BME280;49073;42.352;23.808;2023-04-21T08:34:29;94287.47;;;13.59;53.55
62978;BME280;49073;42.352;23.808;2023-04-21T08:37:30;94281.72;;;13.64;52.60
62978;BME280;49073;42.352;23.808;2023-04-21T08:40:36;94274.03;;;14.02;52.29
62978;BME280;49073;42.352;23.808;2023-04-21T08:43:37;94262.56;;;14.05;51.42
62978;BME280;49073;42.352;23.808;2023-04-21T08:46:38;94270.53;;;14.31;50.17
62978;BME280;49073;42.352;23.808;2023-04-21T08:49:41;94267.84;;;14.45;50.10
62978;BME280;49073;42.352;23.808;2023-04-21T08:52:44;94271.97;;;14.72;48.43
62978;BME280;49073;42.352;23.808;2023-04-21T08:55:45;94272.38;;;14.63;49.54
62978;BME280;49073;42.352;23.808;2023-04-21T08:58:46;94267.47;;;14.39;48.73
62978;BME280;49073;42.352;23.808;2023-04-21T09:05:10;94261.38;;;14.14;50.49
62978;BME280;49073;42.352;23.808;2023-04-21T09:08:19;94261.66;;;14.63;50.28
62978;BME280;49073;42.352;23.808;2023-04-21T09:11:20;94258.06;;;14.98;48.29
62978;BME280;49073;42.352;23.808;2023-04-21T09:14:21;94235.38;;;15.10;46.88
62978;BME280;49073;42.352;23.808;2023-04-21T09:17:27;94237.41;;;15.48;47.29
62978;BME280;49073;42.352;23.808;2023-04-21T09:20:27;94239.75;;;15.42;46.83
62978;BME280;49073;42.352;23.808;2023-04-21T09:23:28;94243.53;;;14.92;47.46
62978;BME280;49073;42.352;23.808;2023-04-21T09:26:28;94253.16;;;14.86;47.47
62978;BME280;49073;42.352;23.808;2023-04-21T09:29:29;94249.72;;;14.78;48.96
62978;BME280;49073;42.352;23.808;2023-04-21T09:32:35;94244.75;;;14.73;48.20
62978;BME280;49073;42.352;23.808;2023-04-21T09:35:36;94248.19;;;14.66;48.68
62978;BME280;49073;42.352;23.808;2023-04-21T09:38:38;94242.09;;;14.62;47.84
62978;BME280;49073;42.352;23.808;2023-04-21T09:41:39;94251.34;;;14.50;46.56
62978;BME280;49073;42.352;23.808;2023-04-21T09:44:39;94246.22;;;14.89;45.99
62978;BME280;49073;42.352;23.808;2023-04-21T09:47:41;94224.75;;;15.49;44.88
62978;BME280;49073;42.352;23.808;2023-04-21T09:50:42;94230.97;;;15.84;43.70
62978;BME280;49073;42.352;23.808;2023-04-21T09:53:44;94225.88;;;15.51;45.17
62978;BME280;49073;42.352;23.808;2023-04-21T09:56:48;94233.25;;;15.40;47.17
62978;BME280;49073;42.352;23.808;2023-04-21T10:00:02;94229.22;;;15.10;46.01
62978;BME280;49073;42.352;23.808;2023-04-21T10:03:09;94225.81;;;15.59;45.83
62978;BME280;49073;42.352;23.808;2023-04-21T10:06:11;94229.16;;;16.16;45.61
62978;BME280;49073;42.352;23.808;2023-04-21T10:09:12;94221.88;;;16.51;47.10
62978;BME280;49073;42.352;23.808;2023-04-21T10:12:13;94217.94;;;16.59;44.97
62978;BME280;49073;42.352;23.808;2023-04-21T10:15:36;94219.81;;;16.62;44.30
62978;BME280;49073;42.352;23.808;2023-04-21T10:18:38;94217.03;;;16.69;44.63
62978;BME280;49073;42.352;23.808;2023-04-21T10:21:41;94222.03;;;16.36;43.99
62978;BME280;49073;42.352;23.808;2023-04-21T10:24:43;94237.09;;;15.88;44.44
62978;BME280;49073;42.352;23.808;2023-04-21T10:27:45;94217.75;;;15.62;45.02
62978;BME280;49073;42.352;23.808;2023-04-21T10:30:45;94219.38;;;15.49;44.49
62978;BME280;49073;42.352;23.808;2023-04-21T10:37:09;94215.94;;;15.45;46.73
62978;BME280;49073;42.352;23.808;2023-04-21T10:43:42;94222.66;;;15.18;46.95
62978;BME280;49073;42.352;23.808;2023-04-21T10:46:48;94221.16;;;15.13;46.95
62978;BME280;49073;42.352;23.808;2023-04-21T10:49:49;94218.91;;;15.08;46.63
62978;BME280;49073;42.352;23.808;2023-04-21T10:52:56;94217.28;;;15.18;46.55
62978;BME280;49073;42.352;23.808;2023-04-21T10:55:57;94214.19;;;15.23;46.44
62978;BME280;49073;42.352;23.808;2023-04-21T10:58:58;94219.13;;;15.32;46.73
62978;BME280;49073;42.352;23.808;2023-04-21T11:01:59;94221.81;;;15.28;45.92
62978;BME280;49073;42.352;23.808;2023-04-21T11:05:01;94217.59;;;15.31;46.38
62978;BME280;49073;42.352;23.808;2023-04-21T11:08:12;94217.94;;;15.37;46.09
62978;BME280;49073;42.352;23.808;2023-04-21T11:11:21;94213.69;;;15.39;46.06
62978;BME280;49073;42.352;23.808;2023-04-21T11:14:23;94215.94;;;15.45;45.73
62978;BME280;49073;42.352;23.808;2023-04-21T11:17:24;94222.78;;;15.56;48.08
62978;BME280;49073;42.352;23.808;2023-04-21T11:20:24;94211.88;;;15.75;46.82
62978;BME280;49073;42.352;23.808;2023-04-21T11:23:25;94209.25;;;16.09;48.31
62978;BME280;49073;42.352;23.808;2023-04-21T11:26:33;94201.00;;;15.89;46.58
62978;BME280;49073;42.352;23.808;2023-04-21T11:29:34;94200.41;;;15.70;46.18
62978;BME280;49073;42.352;23.808;2023-04-21T11:32:35;94204.63;;;15.71;46.86
62978;BME280;49073;42.352;23.808;2023-04-21T11:35:39;94204.63;;;15.68;45.63
62978;BME280;49073;42.352;23.808;2023-04-21T11:38:40;94203.03;;;15.74;48.77
62978;BME280;49073;42.352;23.808;2023-04-21T11:41:44;94194.13;;;15.84;46.36
62978;BME280;49073;42.352;23.808;2023-04-21T11:44:44;94195.91;;;16.02;45.09
62978;BME280;49073;42.352;23.808;2023-04-21T11:47:46;94188.41;;;16.21;45.99
62978;BME280;49073;42.352;23.808;2023-04-21T11:50:50;94189.22;;;16.14;44.28
62978;BME280;49073;42.352;23.808;2023-04-21T11:53:50;94190.41;;;16.13;44.33
62978;BME280;49073;42.352;23.808;2023-04-21T11:56:53;94194.59;;;16.18;48.31
62978;BME280;49073;42.352;23.808;2023-04-21T11:59:54;94194.41;;;16.32;49.05
62978;BME280;49073;42.352;23.808;2023-04-21T12:02:57;94193.69;;;16.28;50.78
62978;BME280;49073;42.352;23.808;2023-04-21T12:05:57;94196.28;;;16.04;50.39
62978;BME280;49073;42.352;23.808;2023-04-21T12:09:01;94198.22;;;16.00;50.43
62978;BME280;49073;42.352;23.808;2023-04-21T12:12:05;94204.91;;;15.81;52.44
62978;BME280;49073;42.352;23.808;2023-04-21T12:15:09;94198.88;;;15.69;53.28
62978;BME280;49073;42.352;23.808;2023-04-21T12:18:13;94193.25;;;15.53;53.91
62978;BME280;49073;42.352;23.808;2023-04-21T12:21:14;94186.78;;;15.47;57.32
62978;BME280;49073;42.352;23.808;2023-04-21T12:24:15;94201.13;;;15.75;56.93
62978;BME280;49073;42.352;23.808;2023-04-21T12:27:16;94191.41;;;16.57;52.54
62978;BME280;49073;42.352;23.808;2023-04-21T12:30:19;94185.75;;;17.10;51.66
62978;BME280;49073;42.352;23.808;2023-04-21T12:33:20;94177.88;;;17.47;47.04
62978;BME280;49073;42.352;23.808;2023-04-21T12:36:20;94189.34;;;17.75;46.09
62978;BME280;49073;42.352;23.808;2023-04-21T12:39:21;94183.06;;;17.82;44.09
62978;BME280;49073;42.352;23.808;2023-04-21T12:42:21;94176.06;;;17.40;43.16
62978;BME280;49073;42.352;23.808;2023-04-21T12:45:22;94175.94;;;17.48;43.81
62978;BME280;49073;42.352;23.808;2023-04-21T12:48:23;94182.34;;;16.75;45.14
62978;BME280;49073;42.352;23.808;2023-04-21T12:51:24;94187.13;;;16.33;46.20
62978;BME280;49073;42.352;23.808;2023-04-21T12:54:24;94190.53;;;16.95;44.99
62978;BME280;49073;42.352;23.808;2023-04-21T12:57:25;94193.97;;;16.68;48.20
62978;BME280;49073;42.352;23.808;2023-04-21T13:00:25;94204.00;;;15.98;50.69
62978;BME280;49073;42.352;23.808;2023-04-21T13:03:26;94197.94;;;15.45;51.99
62978;BME280;49073;42.352;23.808;2023-04-21T13:06:26;94200.56;;;14.96;52.55
62978;BME280;49073;42.352;23.808;2023-04-21T13:09:28;94196.09;;;14.75;53.13
62978;BME280;49073;42.352;23.808;2023-04-21T13:12:29;94187.66;;;14.76;52.46
62978;BME280;49073;42.352;23.808;2023-04-21T13:15:29;94197.59;;;14.79;52.12
62978;BME280;49073;42.352;23.808;2023-04-21T13:18:30;94186.53;;;14.66;53.81
62978;BME280;49073;42.352;23.808;2023-04-21T13:21:30;94181.94;;;14.63;55.98
62978;BME280;49073;42.352;23.808;2023-04-21T13:24:32;94186.13;;;14.79;54.96
62978;BME280;49073;42.352;23.808;2023-04-21T13:27:33;94186.44;;;14.88;54.04
62978;BME280;49073;42.352;23.808;2023-04-21T13:30:33;94198.69;;;14.89;54.77
62978;BME280;49073;42.352;23.808;2023-04-21T13:33:35;94202.22;;;14.68;58.21
62978;BME280;49073;42.352;23.808;2023-04-21T13:36:36;94193.53;;;14.46;58.62
62978;BME280;49073;42.352;23.808;2023-04-21T13:39:37;94207.41;;;14.11;57.62
62978;BME280;49073;42.352;23.808;2023-04-21T13:42:38;94214.75;;;13.93;59.45
62978;BME280;49073;42.352;23.808;2023-04-21T13:45:39;94220.50;;;13.80;59.95
62978;BME280;49073;42.352;23.808;2023-04-21T13:48:40;94219.75;;;13.76;60.88
62978;BME280;49073;42.352;23.808;2023-04-21T13:51:41;94225.13;;;13.62;64.58
62978;BME280;49073;42.352;23.808;2023-04-21T13:54:42;94222.44;;;13.55;66.85
62978;BME280;49073;42.352;23.808;2023-04-21T13:57:43;94220.13;;;13.49;67.71
62978;BME280;49073;42.352;23.808;2023-04-21T14:00:44;94212.88;;;13.53;66.30
62978;BME280;49073;42.352;23.808;2023-04-21T14:03:44;94218.59;;;13.48;66.86
62978;BME280;49073;42.352;23.808;2023-04-21T14:06:45;94221.28;;;13.48;67.00
62978;BME280;49073;42.352;23.808;2023-04-21T14:09:46;94224.34;;;13.50;66.97
62978;BME280;49073;42.352;23.808;2023-04-21T14:12:48;94220.91;;;13.53;63.17
62978;BME280;49073;42.352;23.808;2023-04-21T14:15:49;94220.53;;;13.44;65.88
62978;BME280;49073;42.352;23.808;2023-04-21T14:18:50;94227.78;;;13.36;65.95
62978;BME280;49073;42.352;23.808;2023-04-21T14:21:51;94206.75;;;13.38;62.23
62978;BME280;49073;42.352;23.808;2023-04-21T14:24:51;94208.66;;;13.42;61.90
62978;BME280;49073;42.352;23.808;2023-04-21T14:27:52;94204.84;;;13.50;62.92
62978;BME280;49073;42.352;23.808;2023-04-21T14:30:53;94197.59;;;13.58;59.94
62978;BME280;49073;42.352;23.808;2023-04-21T14:33:54;94207.53;;;13.68;60.25
62978;BME280;49073;42.352;23.808;2023-04-21T14:36:55;94203.69;;;13.76;61.89
62978;BME280;49073;42.352;23.808;2023-04-21T14:39:55;94203.66;;;13.80;63.28
62978;BME280;49073;42.352;23.808;2023-04-21T14:42:56;94200.22;;;13.79;62.82
62978;BME280;49073;42.352;23.808;2023-04-21T14:45:56;94201.75;;;13.80;60.98
62978;BME280;49073;42.352;23.808;2023-04-21T14:48:57;94199.84;;;13.85;61.71
62978;BME280;49073;42.352;23.808;2023-04-21T14:51:58;94200.63;;;13.85;61.94
62978;BME280;49073;42.352;23.808;2023-04-21T14:54:58;94193.69;;;13.95;62.31
62978;BME280;49073;42.352;23.808;2023-04-21T14:58:00;94199.41;;;14.08;61.53
62978;BME280;49073;42.352;23.808;2023-04-21T15:01:00;94205.91;;;14.14;63.23
62978;BME280;49073;42.352;23.808;2023-04-21T15:04:01;94195.56;;;14.16;64.36
62978;BME280;49073;42.352;23.808;2023-04-21T15:07:02;94200.16;;;14.16;64.62
62978;BME280;49073;42.352;23.808;2023-04-21T15:10:03;94194.75;;;14.30;64.06
62978;BME280;49073;42.352;23.808;2023-04-21T15:13:04;94199.69;;;14.32;62.00
62978;BME280;49073;42.352;23.808;2023-04-21T15:16:05;94195.81;;;14.51;62.89
62978;BME280;49073;42.352;23.808;2023-04-21T15:19:05;94186.59;;;14.55;62.51
62978;BME280;49073;42.352;23.808;2023-04-21T15:22:06;94195.78;;;14.54;61.16
62978;BME280;49073;42.352;23.808;2023-04-21T15:25:07;94193.06;;;14.58;60.66
62978;BME280;49073;42.352;23.808;2023-04-21T15:28:08;94188.09;;;14.60;60.74
62978;BME280;49073;42.352;23.808;2023-04-21T15:31:08;94189.63;;;14.65;60.16
62978;BME280;49073;42.352;23.808;2023-04-21T15:34:09;94184.63;;;14.63;59.28
62978;BME280;49073;42.352;23.808;2023-04-21T15:37:09;94187.72;;;14.58;59.06
62978;BME280;49073;42.352;23.808;2023-04-21T15:40:10;94184.28;;;14.54;60.05
62978;BME280;49073;42.352;23.808;2023-04-21T15:43:11;94176.25;;;14.54;60.31
62978;BME280;49073;42.352;23.808;2023-04-21T15:46:11;94170.91;;;14.50;59.31
62978;BME280;49073;42.352;23.808;2023-04-21T15:49:12;94176.19;;;14.65;59.38
62978;BME280;49073;42.352;23.808;2023-04-21T15:52:13;94174.25;;;14.69;59.99
62978;BME280;49073;42.352;23.808;2023-04-21T15:55:13;94176.16;;;14.68;58.15
62978;BME280;49073;42.352;23.808;2023-04-21T15:58:14;94175.03;;;14.77;58.50
62978;BME280;49073;42.352;23.808;2023-04-21T16:01:15;94178.88;;;14.72;57.60